sensor_id;sensor_type;location;lat;lon;timestamp;pressure;altitude;pressure_sealevel;temperature;humidity
71772;BME280;59606;52.138;5.424;2023-10-08T00:02:05;102334.38;;;18.03;100.00
71772;BME280;59606;52.138;5.424;2023-10-08T00:04:33;102342.31;;;18.03;100.00
71772;BME280;59606;52.138;5.424;2023-10-08T00:07:04;102354.75;;;18.01;100.00
71772;BME280;59606;52.138;5.424;2023-10-08T00:09:34;102370.56;;;18.01;100.00
71772;BME280;59606;52.138;5.424;2023-10-08T00:12:06;102375.00;;;18.01;100.00
71772;BME280;59606;52.138;5.424;2023-10-08T00:14:34;102377.66;;;18.01;100.00
71772;BME280;59606;52.138;5.424;2023-10-08T00:17:13;102388.19;;;18.01;100.00
71772;BME280;59606;52.138;5.424;2023-10-08T00:19:40;102388.19;;;18.01;100.00
71772;BME280;59606;52.138;5.424;2023-10-08T00:22:10;102376.03;;;17.98;100.00
71772;BME280;59606;52.138;5.424;2023-10-08T00:24:40;102379.53;;;17.99;100.00
71772;BME280;59606;52.138;5.424;2023-10-08T00:27:09;102371.69;;;17.97;100.00
71772;BME280;59606;52.138;5.424;2023-10-08T00:29:36;102371.59;;;17.99;100.00
71772;BME280;59606;52.138;5.424;2023-10-08T00:32:06;102369.03;;;17.97;100.00
71772;BME280;59606;52.138;5.424;2023-10-08T00:34:42;102375.19;;;17.98;100.00
71772;BME280;59606;52.138;5.424;2023-10-08T00:37:10;102373.47;;;17.97;100.00
71772;BME280;59606;52.138;5.424;2023-10-08T00:39:41;102355.97;;;17.96;100.00
71772;BME280;59606;52.138;5.424;2023-10-08T00:42:07;102359.44;;;17.96;100.00
71772;BME280;59606;52.138;5.424;2023-10-08T00:44:35;102354.19;;;17.96;100.00
71772;BME280;59606;52.138;5.424;2023-10-08T00:47:08;102359.56;;;17.95;100.00
71772;BME280;59606;52.138;5.424;2023-10-08T00:49:37;102345.63;;;17.93;100.00
71772;BME280;59606;52.138;5.424;2023-10-08T00:52:05;102352.69;;;17.92;100.00
71772;BME280;59606;52.138;5.424;2023-10-08T00:54:36;102343.16;;;17.89;100.00
71772;BME280;59606;52.138;5.424;2023-10-08T00:57:25;102335.19;;;17.91;100.00
71772;BME280;59606;52.138;5.424;2023-10-08T00:59:52;102333.56;;;17.88;100.00
71772;BME280;59606;52.138;5.424;2023-10-08T01:02:24;102338.91;;;17.87;100.00
71772;BME280;59606;52.138;5.424;2023-10-08T01:04:56;102333.75;;;17.85;100.00
71772;BME280;59606;52.138;5.424;2023-10-08T01:07:25;102335.53;;;17.85;100.00
71772;BME280;59606;52.138;5.424;2023-10-08T01:09:51;102337.53;;;17.81;100.00
71772;BME280;59606;52.138;5.424;2023-10-08T01:12:23;102333.19;;;17.80;100.00
71772;BME280;59606;52.138;5.424;2023-10-08T01:14:49;102336.75;;;17.79;100.00
71772;BME280;59606;52.138;5.424;2023-10-08T01:17:20;102326.31;;;17.78;100.00
71772;BME280;59606;52.138;5.424;2023-10-08T01:19:51;102335.22;;;17.75;100.00
71772;BME280;59606;52.138;5.424;2023-10-08T01:22:23;102320.38;;;17.74;100.00
71772;BME280;59606;52.138;5.424;2023-10-08T01:24:51;102332.66;;;17.74;100.00
71772;BME280;59606;52.138;5.424;2023-10-08T01:27:18;102330.16;;;17.72;100.00
71772;BME280;59606;52.138;5.424;2023-10-08T01:29:51;102336.38;;;17.71;100.00
71772;BME280;59606;52.138;5.424;2023-10-08T01:32:20;102338.22;;;17.69;100.00
71772;BME280;59606;52.138;5.424;2023-10-08T01:34:47;102341.81;;;17.68;100.00
71772;BME280;59606;52.138;5.424;2023-10-08T01:37:15;102348.97;;;17.66;100.00
71772;BME280;59606;52.138;5.424;2023-10-08T01:39:46;102370.03;;;17.66;100.00
71772;BME280;59606;52.138;5.424;2023-10-08T01:42:14;102360.53;;;17.63;100.00
71772;BME280;59606;52.138;5.424;2023-10-08T01:44:45;102361.47;;;17.62;100.00
71772;BME280;59606;52.138;5.424;2023-10-08T01:47:20;102355.44;;;17.60;100.00
71772;BME280;59606;52.138;5.424;2023-10-08T01:49:47;102371.47;;;17.57;100.00
71772;BME280;59606;52.138;5.424;2023-10-08T01:52:13;102369.75;;;17.56;100.00
71772;BME280;59606;52.138;5.424;2023-10-08T01:54:49;102378.59;;;17.55;100.00
71772;BME280;59606;52.138;5.424;2023-10-08T01:57:16;102389.16;;;17.55;100.00
71772;BME280;59606;52.138;5.424;2023-10-08T01:59:44;102394.59;;;17.52;100.00
71772;BME280;59606;52.138;5.424;2023-10-08T02:02:10;102404.38;;;17.50;100.00
71772;BME280;59606;52.138;5.424;2023-10-08T02:04:39;102396.47;;;17.50;100.00
71772;BME280;59606;52.138;5.424;2023-10-08T02:07:07;102406.16;;;17.50;100.00
71772;BME280;59606;52.138;5.424;2023-10-08T02:09:40;102404.47;;;17.49;100.00
71772;BME280;59606;52.138;5.424;2023-10-08T02:12:07;102403.53;;;17.50;100.00
71772;BME280;59606;52.138;5.424;2023-10-08T02:14:34;102404.28;;;17.52;100.00
71772;BME280;59606;52.138;5.424;2023-10-08T02:17:02;102405.13;;;17.52;100.00
71772;BME280;59606;52.138;5.424;2023-10-08T02:19:33;102419.16;;;17.53;100.00
71772;BME280;59606;52.138;5.424;2023-10-08T02:22:01;102405.97;;;17.53;100.00
71772;BME280;59606;52.138;5.424;2023-10-08T02:24:28;102413.03;;;17.52;100.00
71772;BME280;59606;52.138;5.424;2023-10-08T02:26:56;102391.97;;;17.52;100.00
71772;BME280;59606;52.138;5.424;2023-10-08T02:29:26;102370.03;;;17.52;100.00
71772;BME280;59606;52.138;5.424;2023-10-08T02:31:53;102407.78;;;17.52;100.00
71772;BME280;59606;52.138;5.424;2023-10-08T02:34:20;102405.97;;;17.53;100.00
71772;BME280;59606;52.138;5.424;2023-10-08T02:36:47;102424.44;;;17.53;100.00
71772;BME280;59606;52.138;5.424;2023-10-08T02:39:14;102413.16;;;17.51;100.00
71772;BME280;59606;52.138;5.424;2023-10-08T02:41:41;102399.09;;;17.50;100.00
71772;BME280;59606;52.138;5.424;2023-10-08T02:44:08;102387.63;;;17.51;100.00
71772;BME280;59606;52.138;5.424;2023-10-08T02:46:40;102367.47;;;17.50;100.00
71772;BME280;59606;52.138;5.424;2023-10-08T02:49:10;102371.06;;;17.49;100.00
71772;BME280;59606;52.138;5.424;2023-10-08T02:51:39;102375.47;;;17.49;100.00
71772;BME280;59606;52.138;5.424;2023-10-08T02:54:08;102432.69;;;17.47;100.00
71772;BME280;59606;52.138;5.424;2023-10-08T02:56:44;102396.84;;;17.44;100.00
71772;BME280;59606;52.138;5.424;2023-10-08T02:59:12;102416.22;;;17.43;100.00
71772;BME280;59606;52.138;5.424;2023-10-08T03:01:39;102413.50;;;17.44;100.00
71772;BME280;59606;52.138;5.424;2023-10-08T03:04:09;102399.38;;;17.46;100.00
71772;BME280;59606;52.138;5.424;2023-10-08T03:06:47;102386.19;;;17.46;100.00
71772;BME280;59606;52.138;5.424;2023-10-08T03:09:18;102422.25;;;17.45;100.00
71772;BME280;59606;52.138;5.424;2023-10-08T03:11:52;102411.88;;;17.42;100.00
71772;BME280;59606;52.138;5.424;2023-10-08T03:14:24;102397.94;;;17.40;100.00
71772;BME280;59606;52.138;5.424;2023-10-08T03:17:08;102405.94;;;17.38;100.00
71772;BME280;59606;52.138;5.424;2023-10-08T03:19:34;102395.41;;;17.38;100.00
71772;BME280;59606;52.138;5.424;2023-10-08T03:22:01;102406.97;;;17.36;100.00
71772;BME280;59606;52.138;5.424;2023-10-08T03:24:30;102410.63;;;17.33;100.00
71772;BME280;59606;52.138;5.424;2023-10-08T03:27:05;102393.97;;;17.33;100.00
71772;BME280;59606;52.138;5.424;2023-10-08T03:29:36;102387.88;;;17.32;100.00
71772;BME280;59606;52.138;5.424;2023-10-08T03:32:09;102391.44;;;17.31;100.00
71772;BME280;59606;52.138;5.424;2023-10-08T03:34:45;102396.78;;;17.30;100.00
71772;BME280;59606;52.138;5.424;2023-10-08T03:37:14;102410.91;;;17.29;100.00
71772;BME280;59606;52.138;5.424;2023-10-08T03:39:48;102447.00;;;17.27;100.00
71772;BME280;59606;52.138;5.424;2023-10-08T03:42:23;102452.28;;;17.27;100.00
71772;BME280;59606;52.138;5.424;2023-10-08T03:44:50;102440.91;;;17.26;100.00
71772;BME280;59606;52.138;5.424;2023-10-08T03:47:19;102455.00;;;17.25;100.00
71772;BME280;59606;52.138;5.424;2023-10-08T03:49:46;102437.34;;;17.27;100.00
71772;BME280;59606;52.138;5.424;2023-10-08T03:52:12;102442.50;;;17.29;100.00
71772;BME280;59606;52.138;5.424;2023-10-08T03:54:41;102457.47;;;17.28;100.00
71772;BME280;59606;52.138;5.424;2023-10-08T03:57:15;102460.97;;;17.29;100.00
71772;BME280;59606;52.138;5.424;2023-10-08T03:59:45;102473.44;;;17.25;100.00
71772;BME280;59606;52.138;5.424;2023-10-08T04:02:15;102471.25;;;17.17;100.00
71772;BME280;59606;52.138;5.424;2023-10-08T04:04:49;102478.06;;;17.06;100.00
71772;BME280;59606;52.138;5.424;2023-10-08T04:07:18;102485.44;;;16.99;100.00
71772;BME280;59606;52.138;5.424;2023-10-08T04:09:56;102505.84;;;16.95;100.00
71772;BME280;59606;52.138;5.424;2023-10-08T04:12:46;102518.31;;;16.92;100.00
71772;BME280;59606;52.138;5.424;2023-10-08T04:15:18;102508.13;;;16.86;100.00
71772;BME280;59606;52.138;5.424;2023-10-08T04:17:45;102524.34;;;16.78;100.00
71772;BME280;59606;52.138;5.424;2023-10-08T04:20:17;102523.09;;;16.68;100.00
71772;BME280;59606;52.138;5.424;2023-10-08T04:23:05;102522.59;;;16.61;100.00
71772;BME280;59606;52.138;5.424;2023-10-08T04:25:32;102513.38;;;16.53;100.00
71772;BME280;59606;52.138;5.424;2023-10-08T04:28:00;102510.06;;;16.49;100.00
71772;BME280;59606;52.138;5.424;2023-10-08T04:30:32;102514.81;;;16.42;100.00
71772;BME280;59606;52.138;5.424;2023-10-08T04:33:00;102508.69;;;16.42;100.00
71772;BME280;59606;52.138;5.424;2023-10-08T04:35:36;102500.63;;;16.45;100.00
71772;BME280;59606;52.138;5.424;2023-10-08T04:38:04;102490.13;;;16.45;100.00
71772;BME280;59606;52.138;5.424;2023-10-08T04:40:35;102495.47;;;16.43;100.00
71772;BME280;59606;52.138;5.424;2023-10-08T04:43:15;102487.75;;;16.40;100.00
71772;BME280;59606;52.138;5.424;2023-10-08T04:45:42;102478.06;;;16.41;100.00
71772;BME280;59606;52.138;5.424;2023-10-08T04:48:09;102468.66;;;16.37;100.00
71772;BME280;59606;52.138;5.424;2023-10-08T04:50:36;102475.75;;;16.35;100.00
71772;BME280;59606;52.138;5.424;2023-10-08T04:53:04;102497.75;;;16.34;100.00
71772;BME280;59606;52.138;5.424;2023-10-08T04:55:35;102513.69;;;16.31;100.00
71772;BME280;59606;52.138;5.424;2023-10-08T04:58:01;102528.63;;;16.30;100.00
71772;BME280;59606;52.138;5.424;2023-10-08T05:00:38;102526.91;;;16.29;100.00
71772;BME280;59606;52.138;5.424;2023-10-08T05:03:11;102517.22;;;16.30;100.00
71772;BME280;59606;52.138;5.424;2023-10-08T05:05:41;102526.91;;;16.29;100.00
71772;BME280;59606;52.138;5.424;2023-10-08T05:08:26;102524.56;;;16.23;100.00
71772;BME280;59606;52.138;5.424;2023-10-08T05:10:59;102529.00;;;16.22;100.00
71772;BME280;59606;52.138;5.424;2023-10-08T05:13:41;102513.22;;;16.22;100.00
71772;BME280;59606;52.138;5.424;2023-10-08T05:16:22;102524.56;;;16.23;100.00
71772;BME280;59606;52.138;5.424;2023-10-08T05:19:03;102524.56;;;16.23;100.00
71772;BME280;59606;52.138;5.424;2023-10-08T05:21:49;102538.59;;;16.23;100.00
71772;BME280;59606;52.138;5.424;2023-10-08T05:24:28;102545.72;;;16.21;100.00
71772;BME280;59606;52.138;5.424;2023-10-08T05:27:04;102554.44;;;16.22;100.00
71772;BME280;59606;52.138;5.424;2023-10-08T05:29:50;102564.66;;;16.11;100.00
71772;BME280;59606;52.138;5.424;2023-10-08T05:32:38;102572.22;;;15.99;100.00
71772;BME280;59606;52.138;5.424;2023-10-08T05:35:12;102567.34;;;15.92;100.00
71772;BME280;59606;52.138;5.424;2023-10-08T05:38:18;102559.91;;;15.83;100.00
71772;BME280;59606;52.138;5.424;2023-10-08T05:41:00;102583.81;;;15.78;100.00
71772;BME280;59606;52.138;5.424;2023-10-08T05:43:31;102584.03;;;15.73;100.00
71772;BME280;59606;52.138;5.424;2023-10-08T05:46:14;102574.78;;;15.65;100.00
71772;BME280;59606;52.138;5.424;2023-10-08T05:48:51;102598.56;;;15.62;100.00
71772;BME280;59606;52.138;5.424;2023-10-08T05:51:37;102618.28;;;15.53;100.00
71772;BME280;59606;52.138;5.424;2023-10-08T05:54:14;102637.84;;;15.46;100.00
71772;BME280;59606;52.138;5.424;2023-10-08T05:56:57;102619.63;;;15.43;100.00
71772;BME280;59606;52.138;5.424;2023-10-08T05:59:34;102604.06;;;15.38;100.00
71772;BME280;59606;52.138;5.424;2023-10-08T06:02:41;102583.28;;;15.33;100.00
71772;BME280;59606;52.138;5.424;2023-10-08T06:05:11;102578.88;;;15.34;100.00
71772;BME280;59606;52.138;5.424;2023-10-08T06:07:53;102567.53;;;15.33;100.00
71772;BME280;59606;52.138;5.424;2023-10-08T06:10:29;102587.84;;;15.30;100.00
71772;BME280;59606;52.138;5.424;2023-10-08T06:12:58;102596.84;;;15.24;100.00
71772;BME280;59606;52.138;5.424;2023-10-08T06:15:36;102599.56;;;15.23;100.00
71772;BME280;59606;52.138;5.424;2023-10-08T06:18:16;102624.16;;;15.20;100.00
71772;BME280;59606;52.138;5.424;2023-10-08T06:20:45;102636.59;;;15.17;100.00
71772;BME280;59606;52.138;5.424;2023-10-08T06:23:13;102632.31;;;15.14;100.00
71772;BME280;59606;52.138;5.424;2023-10-08T06:25:46;102624.38;;;15.16;100.00
71772;BME280;59606;52.138;5.424;2023-10-08T06:28:16;102631.47;;;15.14;100.00
71772;BME280;59606;52.138;5.424;2023-10-08T06:30:46;102634.16;;;15.12;100.00
71772;BME280;59606;52.138;5.424;2023-10-08T06:33:14;102647.34;;;15.11;100.00
71772;BME280;59606;52.138;5.424;2023-10-08T06:35:41;102636.78;;;15.12;100.00
71772;BME280;59606;52.138;5.424;2023-10-08T06:38:11;102643.75;;;15.13;100.00
71772;BME280;59606;52.138;5.424;2023-10-08T06:40:42;102655.00;;;15.15;100.00
71772;BME280;59606;52.138;5.424;2023-10-08T06:43:09;102645.44;;;15.14;100.00
71772;BME280;59606;52.138;5.424;2023-10-08T06:45:44;102658.69;;;15.11;100.00
71772;BME280;59606;52.138;5.424;2023-10-08T06:48:14;102655.16;;;15.12;100.00
71772;BME280;59606;52.138;5.424;2023-10-08T06:50:48;102641.31;;;15.08;100.00
71772;BME280;59606;52.138;5.424;2023-10-08T06:53:16;102645.66;;;15.09;100.00
71772;BME280;59606;52.138;5.424;2023-10-08T06:55:45;102656.94;;;15.12;100.00
71772;BME280;59606;52.138;5.424;2023-10-08T06:58:15;102651.81;;;15.08;100.00
71772;BME280;59606;52.138;5.424;2023-10-08T07:00:41;102652.59;;;15.11;100.00
71772;BME280;59606;52.138;5.424;2023-10-08T07:03:17;102652.53;;;15.12;100.00
71772;BME280;59606;52.138;5.424;2023-10-08T07:05:46;102654.25;;;15.13;100.00
71772;BME280;59606;52.138;5.424;2023-10-08T07:08:32;102663.09;;;15.11;100.00
71772;BME280;59606;52.138;5.424;2023-10-08T07:11:01;102664.81;;;15.12;100.00
71772;BME280;59606;52.138;5.424;2023-10-08T07:13:34;102668.13;;;15.15;100.00
71772;BME280;59606;52.138;5.424;2023-10-08T07:16:03;102669.03;;;15.16;100.00
71772;BME280;59606;52.138;5.424;2023-10-08T07:18:31;102662.13;;;15.13;100.00
71772;BME280;59606;52.138;5.424;2023-10-08T07:21:01;102673.59;;;15.11;100.00
71772;BME280;59606;52.138;5.424;2023-10-08T07:23:38;102677.16;;;15.09;100.00
71772;BME280;59606;52.138;5.424;2023-10-08T07:26:24;102679.78;;;15.09;100.00
71772;BME280;59606;52.138;5.424;2023-10-08T07:28:52;102674.31;;;15.14;100.00
71772;BME280;59606;52.138;5.424;2023-10-08T07:31:23;102676.81;;;15.17;100.00
71772;BME280;59606;52.138;5.424;2023-10-08T07:33:53;102689.66;;;15.23;100.00
71772;BME280;59606;52.138;5.424;2023-10-08T07:36:25;102682.50;;;15.27;100.00
71772;BME280;59606;52.138;5.424;2023-10-08T07:38:53;102676.97;;;15.33;100.00
71772;BME280;59606;52.138;5.424;2023-10-08T07:41:20;102676.75;;;15.38;100.00
71772;BME280;59606;52.138;5.424;2023-10-08T07:43:47;102675.69;;;15.42;100.00
71772;BME280;59606;52.138;5.424;2023-10-08T07:46:22;102665.13;;;15.43;100.00
71772;BME280;59606;52.138;5.424;2023-10-08T07:48:49;102694.91;;;15.42;100.00
71772;BME280;59606;52.138;5.424;2023-10-08T07:51:17;102686.06;;;15.45;100.00
71772;BME280;59606;52.138;5.424;2023-10-08T07:53:53;102682.59;;;15.44;100.00
71772;BME280;59606;52.138;5.424;2023-10-08T07:56:23;102704.44;;;15.45;100.00
71772;BME280;59606;52.138;5.424;2023-10-08T07:58:52;102699.47;;;15.39;100.00
71772;BME280;59606;52.138;5.424;2023-10-08T08:01:23;102701.91;;;15.43;100.00
71772;BME280;59606;52.138;5.424;2023-10-08T08:03:51;102709.34;;;15.52;100.00
71772;BME280;59606;52.138;5.424;2023-10-08T08:06:18;102711.78;;;15.57;100.00
71772;BME280;59606;52.138;5.424;2023-10-08T08:08:44;102709.91;;;15.59;100.00
71772;BME280;59606;52.138;5.424;2023-10-08T08:11:11;102730.56;;;15.68;100.00
71772;BME280;59606;52.138;5.424;2023-10-08T08:13:44;102725.47;;;15.64;99.97
71772;BME280;59606;52.138;5.424;2023-10-08T08:16:12;102722.75;;;15.67;100.00
71772;BME280;59606;52.138;5.424;2023-10-08T08:18:48;102726.22;;;15.67;99.58
71772;BME280;59606;52.138;5.424;2023-10-08T08:21:26;102733.13;;;15.70;99.56
71772;BME280;59606;52.138;5.424;2023-10-08T08:23:53;102733.03;;;15.71;99.05
71772;BME280;59606;52.138;5.424;2023-10-08T08:26:31;102733.13;;;15.70;97.78
71772;BME280;59606;52.138;5.424;2023-10-08T08:29:06;102734.81;;;15.71;98.27
71772;BME280;59606;52.138;5.424;2023-10-08T08:31:37;102743.41;;;15.74;97.25
71772;BME280;59606;52.138;5.424;2023-10-08T08:34:06;102748.59;;;15.76;97.53
71772;BME280;59606;52.138;5.424;2023-10-08T08:36:40;102754.72;;;15.76;96.90
71772;BME280;59606;52.138;5.424;2023-10-08T08:39:12;102764.34;;;15.76;96.15
71772;BME280;59606;52.138;5.424;2023-10-08T08:42:01;102770.50;;;15.76;95.72
71772;BME280;59606;52.138;5.424;2023-10-08T08:44:31;102779.13;;;15.78;95.58
71772;BME280;59606;52.138;5.424;2023-10-08T08:47:00;102765.84;;;15.82;95.60
71772;BME280;59606;52.138;5.424;2023-10-08T08:49:35;102767.41;;;15.86;95.58
71772;BME280;59606;52.138;5.424;2023-10-08T08:52:05;102762.94;;;15.88;94.70
71772;BME280;59606;52.138;5.424;2023-10-08T08:54:32;102757.84;;;15.85;94.49
71772;BME280;59606;52.138;5.424;2023-10-08T08:57:00;102758.41;;;15.91;95.03
71772;BME280;59606;52.138;5.424;2023-10-08T08:59:30;102745.72;;;15.99;95.33
71772;BME280;59606;52.138;5.424;2023-10-08T09:01:58;102746.25;;;16.08;93.99
71772;BME280;59606;52.138;5.424;2023-10-08T09:04:30;102752.44;;;16.07;93.35
71772;BME280;59606;52.138;5.424;2023-10-08T09:06:59;102757.59;;;16.08;93.31
71772;BME280;59606;52.138;5.424;2023-10-08T09:09:35;102752.28;;;16.10;93.24
71772;BME280;59606;52.138;5.424;2023-10-08T09:12:06;102743.38;;;16.12;93.00
71772;BME280;59606;52.138;5.424;2023-10-08T09:14:37;102743.09;;;16.18;92.85
71772;BME280;59606;52.138;5.424;2023-10-08T09:17:07;102740.97;;;16.26;92.68
71772;BME280;59606;52.138;5.424;2023-10-08T09:19:37;102744.28;;;16.30;91.95
71772;BME280;59606;52.138;5.424;2023-10-08T09:22:09;102738.94;;;16.32;92.28
71772;BME280;59606;52.138;5.424;2023-10-08T09:24:38;102732.41;;;16.40;92.50
71772;BME280;59606;52.138;5.424;2023-10-08T09:27:09;102740.19;;;16.42;91.38
71772;BME280;59606;52.138;5.424;2023-10-08T09:29:41;102739.34;;;16.41;91.40
71772;BME280;59606;52.138;5.424;2023-10-08T09:32:12;102752.28;;;16.46;91.58
71772;BME280;59606;52.138;5.424;2023-10-08T09:34:53;102752.97;;;16.49;91.24
71772;BME280;59606;52.138;5.424;2023-10-08T09:37:20;102748.59;;;16.50;90.96
71772;BME280;59606;52.138;5.424;2023-10-08T09:39:49;102754.59;;;16.52;90.78
71772;BME280;59606;52.138;5.424;2023-10-08T09:42:19;102767.63;;;16.55;91.12
71772;BME280;59606;52.138;5.424;2023-10-08T09:44:48;102773.56;;;16.59;90.39
71772;BME280;59606;52.138;5.424;2023-10-08T09:47:21;102771.03;;;16.57;90.88
71772;BME280;59606;52.138;5.424;2023-10-08T09:50:03;102768.56;;;16.54;90.54
71772;BME280;59606;52.138;5.424;2023-10-08T09:52:48;102771.31;;;16.51;90.77
71772;BME280;59606;52.138;5.424;2023-10-08T09:55:17;102762.50;;;16.52;90.77
71772;BME280;59606;52.138;5.424;2023-10-08T09:57:44;102756.25;;;16.55;90.96
71772;BME280;59606;52.138;5.424;2023-10-08T10:00:11;102755.84;;;16.62;91.71
71772;BME280;59606;52.138;5.424;2023-10-08T10:02:42;102755.50;;;16.70;90.81
71772;BME280;59606;52.138;5.424;2023-10-08T10:05:13;102755.31;;;16.73;91.07
71772;BME280;59606;52.138;5.424;2023-10-08T10:07:49;102745.44;;;16.78;91.50
71772;BME280;59606;52.138;5.424;2023-10-08T10:10:26;102739.09;;;16.82;91.70
71772;BME280;59606;52.138;5.424;2023-10-08T10:12:57;102736.00;;;16.91;91.46
71772;BME280;59606;52.138;5.424;2023-10-08T10:15:26;102743.75;;;16.94;90.60
71772;BME280;59606;52.138;5.424;2023-10-08T10:18:08;102743.75;;;16.94;90.54
71772;BME280;59606;52.138;5.424;2023-10-08T10:20:40;102756.81;;;16.96;90.53
71772;BME280;59606;52.138;5.424;2023-10-08T10:23:35;102748.91;;;16.96;90.51
71772;BME280;59606;52.138;5.424;2023-10-08T10:26:31;102761.22;;;16.95;90.55
71772;BME280;59606;52.138;5.424;2023-10-08T10:31:42;102758.69;;;16.94;90.43
71772;BME280;59606;52.138;5.424;2023-10-08T10:34:18;102751.34;;;17.01;91.42
71772;BME280;59606;52.138;5.424;2023-10-08T10:36:50;102740.66;;;17.04;90.99
71772;BME280;59606;52.138;5.424;2023-10-08T10:39:26;102758.56;;;17.13;91.03
71772;BME280;59606;52.138;5.424;2023-10-08T10:41:54;102760.31;;;17.14;89.93
71772;BME280;59606;52.138;5.424;2023-10-08T10:44:24;102762.06;;;17.13;90.04
71772;BME280;59606;52.138;5.424;2023-10-08T10:46:52;102765.41;;;17.17;90.12
71772;BME280;59606;52.138;5.424;2023-10-08T10:49:39;102761.91;;;17.16;90.17
71772;BME280;59606;52.138;5.424;2023-10-08T10:52:23;102763.53;;;17.19;90.22
71772;BME280;59606;52.138;5.424;2023-10-08T10:55:12;102759.13;;;17.19;89.92
71772;BME280;59606;52.138;5.424;2023-10-08T10:57:56;102745.09;;;17.19;90.20
71772;BME280;59606;52.138;5.424;2023-10-08T11:00:24;102737.72;;;17.26;90.24
71772;BME280;59606;52.138;5.424;2023-10-08T11:03:14;102742.66;;;17.32;90.86
71772;BME280;59606;52.138;5.424;2023-10-08T11:05:48;102732.72;;;17.37;90.58
71772;BME280;59606;52.138;5.424;2023-10-08T11:08:18;102727.47;;;17.37;90.10
71772;BME280;59606;52.138;5.424;2023-10-08T11:10:47;102730.63;;;17.43;90.69
71772;BME280;59606;52.138;5.424;2023-10-08T11:13:25;102737.59;;;17.44;90.53
71772;BME280;59606;52.138;5.424;2023-10-08T11:16:05;102744.72;;;17.42;90.26
71772;BME280;59606;52.138;5.424;2023-10-08T11:18:32;102740.31;;;17.43;89.85
71772;BME280;59606;52.138;5.424;2023-10-08T11:21:07;102741.09;;;17.45;89.93
71772;BME280;59606;52.138;5.424;2023-10-08T11:23:49;102734.72;;;17.49;89.89
71772;BME280;59606;52.138;5.424;2023-10-08T11:26:21;102740.44;;;17.57;89.26
71772;BME280;59606;52.138;5.424;2023-10-08T11:28:59;102738.88;;;17.53;88.79
71772;BME280;59606;52.138;5.424;2023-10-08T11:31:30;102730.38;;;17.48;89.03
71772;BME280;59606;52.138;5.424;2023-10-08T11:34:03;102729.88;;;17.41;88.49
71772;BME280;59606;52.138;5.424;2023-10-08T11:36:37;102728.41;;;17.36;88.46
71772;BME280;59606;52.138;5.424;2023-10-08T11:39:16;102724.28;;;17.30;88.70
71772;BME280;59606;52.138;5.424;2023-10-08T11:42:04;102718.28;;;17.28;89.00
71772;BME280;59606;52.138;5.424;2023-10-08T11:44:33;102728.97;;;17.25;89.56
71772;BME280;59606;52.138;5.424;2023-10-08T11:47:03;102727.34;;;17.23;89.76
71772;BME280;59606;52.138;5.424;2023-10-08T11:49:47;102724.97;;;17.18;89.95
71772;BME280;59606;52.138;5.424;2023-10-08T11:52:16;102723.88;;;17.22;90.12
71772;BME280;59606;52.138;5.424;2023-10-08T11:54:47;102719.03;;;17.30;90.28
71772;BME280;59606;52.138;5.424;2023-10-08T11:57:15;102709.00;;;17.37;90.13
71772;BME280;59606;52.138;5.424;2023-10-08T11:59:49;102713.88;;;17.44;89.88
71772;BME280;59606;52.138;5.424;2023-10-08T12:02:15;102710.16;;;17.49;89.72
71772;BME280;59606;52.138;5.424;2023-10-08T12:04:43;102704.72;;;17.52;89.35
71772;BME280;59606;52.138;5.424;2023-10-08T12:07:14;102699.28;;;17.55;88.85
71772;BME280;59606;52.138;5.424;2023-10-08T12:09:44;102687.22;;;17.51;88.87
71772;BME280;59606;52.138;5.424;2023-10-08T12:12:15;102682.16;;;17.46;88.38
71772;BME280;59606;52.138;5.424;2023-10-08T12:14:42;102679.47;;;17.48;89.09
71772;BME280;59606;52.138;5.424;2023-10-08T12:17:11;102672.81;;;17.56;88.71
71772;BME280;59606;52.138;5.424;2023-10-08T12:19:38;102663.06;;;17.58;88.88
71772;BME280;59606;52.138;5.424;2023-10-08T12:22:06;102662.97;;;17.60;88.76
71772;BME280;59606;52.138;5.424;2023-10-08T12:24:35;102661.19;;;17.60;88.99
71772;BME280;59606;52.138;5.424;2023-10-08T12:27:02;102662.28;;;17.56;88.49
71772;BME280;59606;52.138;5.424;2023-10-08T12:29:29;102659.81;;;17.53;88.27
71772;BME280;59606;52.138;5.424;2023-10-08T12:31:59;102653.78;;;17.51;88.50
71772;BME280;59606;52.138;5.424;2023-10-08T12:34:26;102652.69;;;17.55;88.79
71772;BME280;59606;52.138;5.424;2023-10-08T12:36:56;102654.16;;;17.61;88.73
71772;BME280;59606;52.138;5.424;2023-10-08T12:39:22;102651.69;;;17.58;88.74
71772;BME280;59606;52.138;5.424;2023-10-08T12:41:54;102643.59;;;17.61;88.85
71772;BME280;59606;52.138;5.424;2023-10-08T12:44:23;102652.41;;;17.60;88.63
71772;BME280;59606;52.138;5.424;2023-10-08T12:46:50;102640.97;;;17.61;88.09
71772;BME280;59606;52.138;5.424;2023-10-08T12:49:17;102641.81;;;17.61;88.06
71772;BME280;59606;52.138;5.424;2023-10-08T12:51:47;102638.41;;;17.59;88.46
71772;BME280;59606;52.138;5.424;2023-10-08T12:54:14;102632.88;;;17.64;88.62
71772;BME280;59606;52.138;5.424;2023-10-08T12:56:48;102622.16;;;17.67;88.64
71772;BME280;59606;52.138;5.424;2023-10-08T12:59:15;102633.63;;;17.66;88.69
71772;BME280;59606;52.138;5.424;2023-10-08T13:01:50;102631.16;;;17.63;88.06
71772;BME280;59606;52.138;5.424;2023-10-08T13:04:23;102621.75;;;17.59;88.35
71772;BME280;59606;52.138;5.424;2023-10-08T13:07:01;102633.91;;;17.61;88.70
71772;BME280;59606;52.138;5.424;2023-10-08T13:09:30;102632.97;;;17.62;88.20
71772;BME280;59606;52.138;5.424;2023-10-08T13:12:04;102617.25;;;17.61;87.80